Ocean Dr Beach, South Carolina
Current Conditions -  °F | °C
As of 12:53 AM on Friday 31 Oct 2014 (Local Time) from KCRE Reporting Station
Few Clouds Few Clouds  
Wind Chill: 53°   Ceiling: Unl
Heat Index: 53°   Visibility: 10mi
Dew Point: 51°   Wind: 7mph
Humidity: 93%   Direction: 20°NNE
Pressure: 29.93"   Gusts: NA
Location:  33.8371°N, 78.6471°W
Report Text: KCRE 310453Z 02006KT 10SM FEW050 12/11 A2993 RMK AO1 SLP136 T01170106 402170117
Loading
Personal Weather Stations






























Interactive Weather Map
Tropical Storm Tracking
New forecast layout! Learn more

10-Day Weather Forecast

Advertisements
Track Severe Weather on mobile